createdAt,value
2022-11-30T00:00:28.278Z,958.32
2022-11-30T00:01:29.190Z,958.28
2022-11-30T00:02:28.349Z,958.28
2022-11-30T00:03:28.311Z,958.32
2022-11-30T00:04:28.446Z,958.31
2022-11-30T00:05:29.113Z,958.35
2022-11-30T00:06:28.373Z,958.29
2022-11-30T00:07:28.404Z,958.28
2022-11-30T00:08:28.241Z,958.30
2022-11-30T00:09:28.426Z,958.28
2022-11-30T00:10:28.329Z,958.26
2022-11-30T00:11:28.194Z,958.28
2022-11-30T00:12:28.202Z,958.25
2022-11-30T00:13:28.503Z,958.23
2022-11-30T00:14:28.216Z,958.24
2022-11-30T00:15:28.306Z,958.25
2022-11-30T00:16:28.405Z,958.24
2022-11-30T00:17:28.497Z,958.28
2022-11-30T00:18:28.114Z,958.29
2022-11-30T00:19:28.308Z,958.23
2022-11-30T00:20:28.334Z,958.29
2022-11-30T00:21:28.338Z,958.24
2022-11-30T00:22:28.359Z,958.24
2022-11-30T00:23:28.222Z,958.23
2022-11-30T00:24:28.203Z,958.21
2022-11-30T00:25:28.022Z,958.23
2022-11-30T00:26:28.002Z,958.23
2022-11-30T00:27:28.366Z,958.19
2022-11-30T00:28:28.950Z,958.14
2022-11-30T00:29:27.973Z,958.18
2022-11-30T00:30:28.244Z,958.19
2022-11-30T00:31:28.105Z,958.19
2022-11-30T00:32:27.923Z,958.18
2022-11-30T00:33:27.938Z,958.18
2022-11-30T00:34:28.290Z,958.22
2022-11-30T00:35:28.071Z,958.20
2022-11-30T00:36:28.067Z,958.18
2022-11-30T00:37:28.150Z,958.21
2022-11-30T00:38:27.952Z,958.22
2022-11-30T00:39:33.987Z,958.17
2022-11-30T00:40:28.801Z,958.20
2022-11-30T00:41:28.036Z,958.18
2022-11-30T00:42:27.710Z,958.20
2022-11-30T00:43:27.835Z,958.15
2022-11-30T00:44:28.325Z,958.16
2022-11-30T00:45:27.839Z,958.16
2022-11-30T00:46:28.546Z,958.15
2022-11-30T00:47:27.839Z,958.18
2022-11-30T00:48:27.610Z,958.17
2022-11-30T00:49:28.759Z,958.18
2022-11-30T00:50:27.591Z,958.17
2022-11-30T00:51:27.615Z,958.17
2022-11-30T00:52:28.312Z,958.16
2022-11-30T00:53:27.573Z,958.21
2022-11-30T00:54:27.538Z,958.20
2022-11-30T00:55:29.201Z,958.25
2022-11-30T00:56:27.502Z,958.23
2022-11-30T00:57:27.521Z,958.26
2022-11-30T00:58:27.563Z,958.21
2022-11-30T00:59:27.494Z,958.23
2022-11-30T01:00:27.470Z,958.24
2022-11-30T01:01:28.510Z,958.21
2022-11-30T01:02:27.477Z,958.27
2022-11-30T01:03:27.436Z,958.22
2022-11-30T01:04:27.516Z,958.23
2022-11-30T01:05:27.436Z,958.24
2022-11-30T01:06:27.360Z,958.30
2022-11-30T01:07:27.496Z,958.29
2022-11-30T01:08:27.354Z,958.29
2022-11-30T01:09:27.360Z,958.28
2022-11-30T01:10:27.468Z,958.28
2022-11-30T01:11:27.378Z,958.28
2022-11-30T01:12:27.288Z,958.29
2022-11-30T01:13:27.340Z,958.29
2022-11-30T01:14:27.258Z,958.30
2022-11-30T01:15:27.306Z,958.30
2022-11-30T01:16:27.389Z,958.28
2022-11-30T01:17:27.251Z,958.29
2022-11-30T01:18:27.202Z,958.33
2022-11-30T01:19:27.223Z,958.31
2022-11-30T01:20:27.209Z,958.28
2022-11-30T01:21:27.160Z,958.28
2022-11-30T01:22:27.549Z,958.26
2022-11-30T01:23:27.138Z,958.26
2022-11-30T01:24:27.154Z,958.24
2022-11-30T01:25:27.144Z,958.30
2022-11-30T01:26:27.140Z,958.28
2022-11-30T01:27:27.242Z,958.32
2022-11-30T01:28:27.160Z,958.26
2022-11-30T01:29:27.046Z,958.29
2022-11-30T01:30:27.099Z,958.30
2022-11-30T01:31:27.059Z,958.31
2022-11-30T01:32:27.040Z,958.31
2022-11-30T01:33:27.038Z,958.31
2022-11-30T01:34:27.147Z,958.32
2022-11-30T01:35:26.949Z,958.32
2022-11-30T01:36:26.971Z,958.35
2022-11-30T01:37:27.031Z,958.35
2022-11-30T01:38:26.948Z,958.36
2022-11-30T01:39:26.921Z,958.38
2022-11-30T01:40:28.131Z,958.34
2022-11-30T01:41:26.886Z,958.36
2022-11-30T01:42:26.886Z,958.32
2022-11-30T01:43:26.896Z,958.33
2022-11-30T01:44:26.862Z,958.32
2022-11-30T01:45:26.833Z,958.33
2022-11-30T01:46:26.985Z,958.33
2022-11-30T01:47:27.667Z,958.34
2022-11-30T01:48:26.810Z,958.31
2022-11-30T01:49:26.955Z,958.38
2022-11-30T01:50:26.834Z,958.37
2022-11-30T01:51:26.764Z,958.40
2022-11-30T01:52:26.826Z,958.38
2022-11-30T01:53:26.732Z,958.36
2022-11-30T01:54:26.769Z,958.38
2022-11-30T01:55:26.714Z,958.38
2022-11-30T01:56:26.767Z,958.38
2022-11-30T01:57:26.704Z,958.37
2022-11-30T01:58:26.817Z,958.37
2022-11-30T01:59:26.647Z,958.35
2022-11-30T02:00:26.668Z,958.35
2022-11-30T02:01:27.805Z,958.35
2022-11-30T02:02:26.803Z,958.34
2022-11-30T02:03:26.644Z,958.33
2022-11-30T02:04:26.724Z,958.32
2022-11-30T02:05:26.611Z,958.34
2022-11-30T02:06:26.568Z,958.36
2022-11-30T02:07:26.714Z,958.36
2022-11-30T02:08:26.610Z,958.38
2022-11-30T02:09:26.548Z,958.34
2022-11-30T02:10:26.647Z,958.34
2022-11-30T02:11:26.523Z,958.37
2022-11-30T02:12:26.619Z,958.35
2022-11-30T02:13:26.561Z,958.36
2022-11-30T02:14:26.546Z,958.39
2022-11-30T02:15:26.452Z,958.40
2022-11-30T02:16:26.531Z,958.38
2022-11-30T02:17:26.402Z,958.37
2022-11-30T02:18:26.395Z,958.36
2022-11-30T02:19:26.412Z,958.36
2022-11-30T02:20:26.368Z,958.33
2022-11-30T02:21:26.321Z,958.37
2022-11-30T02:22:26.548Z,958.35
2022-11-30T02:23:26.293Z,958.39
2022-11-30T02:24:26.308Z,958.38
2022-11-30T02:25:27.280Z,958.39
2022-11-30T02:26:26.294Z,958.34
2022-11-30T02:27:26.254Z,958.38
2022-11-30T02:28:26.367Z,958.39
2022-11-30T02:29:26.205Z,958.38
2022-11-30T02:30:26.214Z,958.38
2022-11-30T02:31:27.227Z,958.39
2022-11-30T02:32:26.190Z,958.36
2022-11-30T02:33:26.151Z,958.36
2022-11-30T02:34:26.232Z,958.36
2022-11-30T02:35:26.113Z,958.39
2022-11-30T02:36:26.130Z,958.40
2022-11-30T02:37:26.176Z,958.41
2022-11-30T02:38:26.106Z,958.42
2022-11-30T02:39:26.066Z,958.40
2022-11-30T02:40:26.158Z,958.42
2022-11-30T02:41:26.056Z,958.36
2022-11-30T02:42:26.039Z,958.39
2022-11-30T02:43:26.051Z,958.38
2022-11-30T02:44:26.018Z,958.40
2022-11-30T02:45:25.988Z,958.42
2022-11-30T02:46:26.125Z,958.40
2022-11-30T02:47:25.958Z,958.42
2022-11-30T02:48:25.976Z,958.37
2022-11-30T02:49:26.906Z,958.37
2022-11-30T02:50:25.958Z,958.40
2022-11-30T02:51:25.917Z,958.39
2022-11-30T02:52:27.010Z,958.37
2022-11-30T02:53:25.914Z,958.35
2022-11-30T02:54:25.879Z,958.34
2022-11-30T02:55:26.172Z,958.34
2022-11-30T02:56:25.853Z,958.37
2022-11-30T02:57:25.818Z,958.33
2022-11-30T02:58:25.907Z,958.33
2022-11-30T02:59:25.789Z,958.36
2022-11-30T03:00:25.792Z,958.35
2022-11-30T03:01:25.851Z,958.41
2022-11-30T03:02:25.802Z,958.38
2022-11-30T03:03:25.728Z,958.35
2022-11-30T03:04:25.825Z,958.40
2022-11-30T03:05:25.711Z,958.36
2022-11-30T03:06:25.707Z,958.38
2022-11-30T03:07:25.762Z,958.42
2022-11-30T03:08:25.725Z,958.43
2022-11-30T03:09:25.650Z,958.41
2022-11-30T03:10:25.770Z,958.48
2022-11-30T03:11:25.678Z,958.43
2022-11-30T03:12:25.629Z,958.42
2022-11-30T03:13:26.598Z,958.39
2022-11-30T03:14:25.624Z,958.43
2022-11-30T03:15:25.560Z,958.44
2022-11-30T03:16:25.771Z,958.41
2022-11-30T03:17:25.527Z,958.41
2022-11-30T03:18:25.584Z,958.42
2022-11-30T03:19:25.589Z,958.43
2022-11-30T03:20:25.513Z,958.44
2022-11-30T03:21:25.487Z,958.46
2022-11-30T03:22:25.559Z,958.46
2022-11-30T03:23:25.453Z,958.46
2022-11-30T03:24:25.481Z,958.46
2022-11-30T03:25:25.452Z,958.49
2022-11-30T03:26:25.441Z,958.46
2022-11-30T03:27:25.410Z,958.49
2022-11-30T03:28:25.540Z,958.50
2022-11-30T03:29:25.360Z,958.50
2022-11-30T03:30:25.384Z,958.41
2022-11-30T03:31:25.441Z,958.41
2022-11-30T03:32:25.355Z,958.47
2022-11-30T03:33:25.311Z,958.46
2022-11-30T03:34:25.455Z,958.46
2022-11-30T03:35:25.286Z,958.48
2022-11-30T03:36:25.287Z,958.45
2022-11-30T03:37:25.295Z,958.43
2022-11-30T03:38:25.262Z,958.43
2022-11-30T03:39:25.245Z,958.42
2022-11-30T03:40:25.351Z,958.43
2022-11-30T03:41:25.237Z,958.38
2022-11-30T03:42:25.234Z,958.42
2022-11-30T03:43:25.225Z,958.40
2022-11-30T03:44:25.191Z,958.39
2022-11-30T03:45:25.149Z,958.43
2022-11-30T03:46:25.359Z,958.41
2022-11-30T03:47:26.074Z,958.43
2022-11-30T03:48:25.131Z,958.46
2022-11-30T03:49:25.125Z,958.48
2022-11-30T03:50:25.113Z,958.45
2022-11-30T03:51:25.073Z,958.45
2022-11-30T03:52:25.228Z,958.42
2022-11-30T03:53:25.091Z,958.40
2022-11-30T03:54:25.055Z,958.40
2022-11-30T03:55:26.003Z,958.41
2022-11-30T03:56:25.018Z,958.40
2022-11-30T03:57:24.979Z,958.43
2022-11-30T03:58:25.629Z,958.39
2022-11-30T03:59:24.939Z,958.37
2022-11-30T04:00:24.971Z,958.39
2022-11-30T04:01:26.015Z,958.40
2022-11-30T04:02:25.024Z,958.39
2022-11-30T04:03:24.947Z,958.42
2022-11-30T04:04:25.049Z,958.42
2022-11-30T04:05:24.861Z,958.40
2022-11-30T04:06:25.837Z,958.39
2022-11-30T04:07:24.931Z,958.47
2022-11-30T04:08:24.845Z,958.40
2022-11-30T04:09:24.827Z,958.37
2022-11-30T04:10:25.032Z,958.40
2022-11-30T04:11:24.781Z,958.43
2022-11-30T04:12:24.811Z,958.42
2022-11-30T04:13:24.775Z,958.38
2022-11-30T04:14:24.780Z,958.38
2022-11-30T04:15:24.752Z,958.39
2022-11-30T04:16:24.863Z,958.37
2022-11-30T04:17:24.689Z,958.39
2022-11-30T04:18:24.709Z,958.38
2022-11-30T04:19:24.699Z,958.39
2022-11-30T04:20:24.678Z,958.41
2022-11-30T04:21:24.640Z,958.38
2022-11-30T04:22:24.757Z,958.44
2022-11-30T04:23:24.603Z,958.35
2022-11-30T04:24:24.611Z,958.38
2022-11-30T04:25:24.623Z,958.36
2022-11-30T04:26:24.599Z,958.43
2022-11-30T04:27:24.560Z,958.38
2022-11-30T04:28:24.728Z,958.41
2022-11-30T04:29:24.586Z,958.39
2022-11-30T04:30:24.579Z,958.43
2022-11-30T04:31:24.594Z,958.40
2022-11-30T04:32:24.507Z,958.41
2022-11-30T04:33:24.474Z,958.39
2022-11-30T04:34:24.571Z,958.42
2022-11-30T04:35:24.456Z,958.37
2022-11-30T04:36:24.456Z,958.44
2022-11-30T04:37:24.454Z,958.47
2022-11-30T04:38:24.428Z,958.41
2022-11-30T04:39:24.401Z,958.37
2022-11-30T04:40:24.504Z,958.37
2022-11-30T04:41:24.365Z,958.37
2022-11-30T04:42:24.381Z,958.40
2022-11-30T04:43:24.362Z,958.42
2022-11-30T04:44:24.356Z,958.39
2022-11-30T04:45:24.331Z,958.43
2022-11-30T04:46:24.557Z,958.48
2022-11-30T04:47:24.283Z,958.38
2022-11-30T04:48:24.286Z,958.39
2022-11-30T04:49:24.306Z,958.42
2022-11-30T04:50:24.268Z,958.39
2022-11-30T04:51:24.228Z,958.37
2022-11-30T04:52:24.744Z,958.44
2022-11-30T04:53:24.218Z,958.42
2022-11-30T04:54:24.211Z,958.43
2022-11-30T04:55:24.224Z,958.41
2022-11-30T04:56:24.171Z,958.37
2022-11-30T04:57:24.140Z,958.41
2022-11-30T04:58:24.233Z,958.37
2022-11-30T04:59:24.107Z,958.41
2022-11-30T05:00:24.127Z,958.41
2022-11-30T05:01:24.219Z,958.39
2022-11-30T05:02:24.116Z,958.41
2022-11-30T05:03:24.064Z,958.36
2022-11-30T05:04:24.173Z,958.38
2022-11-30T05:05:24.149Z,958.43
2022-11-30T05:06:24.074Z,958.43
2022-11-30T05:07:24.206Z,958.43
2022-11-30T05:08:24.008Z,958.41
2022-11-30T05:09:23.961Z,958.38
2022-11-30T05:10:24.119Z,958.41
2022-11-30T05:11:23.945Z,958.36
2022-11-30T05:12:23.950Z,958.46
2022-11-30T05:13:23.969Z,958.41
2022-11-30T05:14:23.925Z,958.41
2022-11-30T05:15:23.891Z,958.45
2022-11-30T05:16:24.024Z,958.42
2022-11-30T05:17:23.851Z,958.42
2022-11-30T05:18:23.890Z,958.44
2022-11-30T05:19:23.939Z,958.46
2022-11-30T05:20:23.841Z,958.44
2022-11-30T05:21:23.813Z,958.44
2022-11-30T05:22:23.972Z,958.46
2022-11-30T05:23:23.779Z,958.46
2022-11-30T05:24:23.807Z,958.47
2022-11-30T05:25:23.847Z,958.48
2022-11-30T05:26:23.761Z,958.48
2022-11-30T05:27:23.738Z,958.47
2022-11-30T05:28:23.868Z,958.47
2022-11-30T05:29:23.682Z,958.37
2022-11-30T05:30:23.777Z,958.43
2022-11-30T05:31:23.806Z,958.46
2022-11-30T05:32:23.685Z,958.43
2022-11-30T05:33:23.634Z,958.41
2022-11-30T05:34:23.643Z,958.42
2022-11-30T05:35:23.631Z,958.48
2022-11-30T05:36:23.761Z,958.46
2022-11-30T05:37:23.753Z,958.44
2022-11-30T05:38:23.603Z,958.42
2022-11-30T05:39:23.586Z,958.47
2022-11-30T05:40:23.533Z,958.48
2022-11-30T05:41:23.571Z,958.49
2022-11-30T05:42:23.669Z,958.49
2022-11-30T05:43:23.560Z,958.49
2022-11-30T05:44:23.478Z,958.50
2022-11-30T05:45:23.564Z,958.48
2022-11-30T05:46:23.554Z,958.51
2022-11-30T05:47:23.483Z,958.48
2022-11-30T05:48:23.564Z,958.50
2022-11-30T05:49:23.545Z,958.48
2022-11-30T05:50:23.399Z,958.49
2022-11-30T05:51:23.407Z,958.52
2022-11-30T05:52:23.386Z,958.50
2022-11-30T05:53:23.530Z,958.46
2022-11-30T05:54:23.432Z,958.48
2022-11-30T05:55:23.389Z,958.47
2022-11-30T05:56:23.339Z,958.49
2022-11-30T05:57:23.338Z,958.47
2022-11-30T05:58:23.285Z,958.47
2022-11-30T05:59:23.298Z,958.46
2022-11-30T06:00:23.480Z,958.43
2022-11-30T06:01:23.435Z,958.47
2022-11-30T06:02:27.991Z,958.48
2022-11-30T06:03:25.808Z,958.49
2022-11-30T06:04:23.195Z,958.47
2022-11-30T06:05:23.195Z,958.50
2022-11-30T06:06:23.419Z,958.48
2022-11-30T06:07:23.268Z,958.46
2022-11-30T06:08:23.576Z,958.47
2022-11-30T06:09:23.174Z,958.43
2022-11-30T06:10:23.131Z,958.49
2022-11-30T06:11:23.329Z,958.47
2022-11-30T06:12:23.265Z,958.48
2022-11-30T06:13:28.636Z,958.44
2022-11-30T06:14:24.058Z,958.47
2022-11-30T06:15:23.069Z,958.45
2022-11-30T06:16:23.111Z,958.43
2022-11-30T06:17:23.036Z,958.46
2022-11-30T06:18:23.087Z,958.44
2022-11-30T06:19:23.064Z,958.44
2022-11-30T06:20:23.146Z,958.50
2022-11-30T06:21:24.829Z,958.47
2022-11-30T06:22:22.943Z,958.47
2022-11-30T06:23:22.977Z,958.44
2022-11-30T06:24:23.220Z,958.46
2022-11-30T06:25:22.987Z,958.49
2022-11-30T06:26:22.965Z,958.47
2022-11-30T06:27:22.942Z,958.45
2022-11-30T06:28:22.882Z,958.43
2022-11-30T06:29:22.869Z,958.44
2022-11-30T06:30:23.672Z,958.47
2022-11-30T06:31:22.929Z,958.45
2022-11-30T06:32:22.808Z,958.48
2022-11-30T06:33:22.826Z,958.49
2022-11-30T06:34:22.781Z,958.49
2022-11-30T06:35:22.841Z,958.51
2022-11-30T06:36:22.863Z,958.48
2022-11-30T06:37:22.793Z,958.48
2022-11-30T06:38:22.894Z,958.52
2022-11-30T06:39:43.048Z,958.51
2022-11-30T06:40:23.689Z,958.49
2022-11-30T06:41:22.734Z,958.46
2022-11-30T06:42:22.822Z,958.49
2022-11-30T06:43:22.735Z,958.52
2022-11-30T06:44:22.670Z,958.53
2022-11-30T06:45:22.661Z,958.49
2022-11-30T06:46:22.607Z,958.51
2022-11-30T06:47:22.629Z,958.52
2022-11-30T06:48:23.422Z,958.54
2022-11-30T06:49:22.649Z,958.55
2022-11-30T06:50:22.560Z,958.51
2022-11-30T06:51:22.576Z,958.53
2022-11-30T06:52:22.527Z,958.58
2022-11-30T06:53:22.890Z,958.52
2022-11-30T06:54:22.644Z,958.48
2022-11-30T06:55:22.552Z,958.56
2022-11-30T06:56:22.484Z,958.52
2022-11-30T06:57:22.479Z,958.53
2022-11-30T06:58:22.446Z,958.52
2022-11-30T06:59:22.473Z,958.58
2022-11-30T07:00:22.855Z,958.56
2022-11-30T07:01:22.484Z,958.55
2022-11-30T07:02:22.390Z,958.56
2022-11-30T07:03:22.452Z,958.57
2022-11-30T07:04:22.402Z,958.57
2022-11-30T07:05:22.376Z,958.54
2022-11-30T07:06:22.515Z,958.54
2022-11-30T07:07:22.402Z,958.57
2022-11-30T07:08:22.308Z,958.56
2022-11-30T07:09:22.317Z,958.59
2022-11-30T07:10:22.290Z,958.60
2022-11-30T07:11:22.304Z,958.60
2022-11-30T07:12:22.399Z,958.59
2022-11-30T07:13:22.286Z,958.59
2022-11-30T07:14:22.222Z,958.58
2022-11-30T07:15:22.241Z,958.61
2022-11-30T07:16:22.210Z,958.56
2022-11-30T07:17:22.262Z,958.55
2022-11-30T07:18:24.776Z,958.54
2022-11-30T07:19:23.384Z,958.60
2022-11-30T07:20:22.145Z,958.59
2022-11-30T07:21:22.150Z,958.58
2022-11-30T07:22:22.100Z,958.58
2022-11-30T07:23:22.132Z,958.60
2022-11-30T07:24:22.426Z,958.63
2022-11-30T07:25:22.131Z,958.64
2022-11-30T07:26:22.072Z,958.62
2022-11-30T07:27:22.066Z,958.60
2022-11-30T07:28:22.025Z,958.62
2022-11-30T07:29:22.043Z,958.62
2022-11-30T07:30:22.211Z,958.60
2022-11-30T07:31:22.563Z,958.63
2022-11-30T07:32:22.049Z,958.63
2022-11-30T07:33:22.072Z,958.64
2022-11-30T07:34:21.946Z,958.60
2022-11-30T07:35:22.105Z,958.57
2022-11-30T07:36:22.595Z,958.64
2022-11-30T07:37:22.122Z,958.64
2022-11-30T07:38:21.906Z,958.60
2022-11-30T07:39:22.111Z,958.63
2022-11-30T07:40:21.948Z,958.61
2022-11-30T07:41:22.177Z,958.60
2022-11-30T07:42:22.143Z,958.59
2022-11-30T07:43:22.375Z,958.59
2022-11-30T07:44:22.068Z,958.57
2022-11-30T07:45:22.177Z,958.59
2022-11-30T07:46:22.059Z,958.56
2022-11-30T07:47:22.148Z,958.60
2022-11-30T07:48:22.414Z,958.60
2022-11-30T07:49:22.252Z,958.59
2022-11-30T07:50:21.987Z,958.58
2022-11-30T07:51:22.878Z,958.59
2022-11-30T07:52:22.177Z,958.64
2022-11-30T07:53:22.013Z,958.57
2022-11-30T07:54:22.742Z,958.64
2022-11-30T07:55:22.544Z,958.57
2022-11-30T07:56:22.041Z,958.62
2022-11-30T07:57:22.156Z,958.67
2022-11-30T07:58:22.221Z,958.66
2022-11-30T07:59:22.430Z,958.66
2022-11-30T08:00:22.119Z,958.69
2022-11-30T08:01:22.872Z,958.70
2022-11-30T08:02:22.073Z,958.68
2022-11-30T08:03:22.679Z,958.69
2022-11-30T08:04:22.323Z,958.72
2022-11-30T08:05:22.019Z,958.71
2022-11-30T08:06:23.348Z,958.69
2022-11-30T08:07:22.724Z,958.73
2022-11-30T08:08:22.307Z,958.72
2022-11-30T08:09:22.476Z,958.70
2022-11-30T08:10:22.601Z,958.67
2022-11-30T08:11:22.091Z,958.70
2022-11-30T08:12:21.965Z,958.69
2022-11-30T08:13:22.228Z,958.67
2022-11-30T08:14:21.407Z,958.70
2022-11-30T08:15:22.855Z,958.71
2022-11-30T08:16:21.407Z,958.69
2022-11-30T08:17:21.376Z,958.73
2022-11-30T08:18:21.583Z,958.77
2022-11-30T08:19:22.309Z,958.73
2022-11-30T08:20:21.340Z,958.74
2022-11-30T08:21:21.982Z,958.81
2022-11-30T08:22:22.129Z,958.77
2022-11-30T08:23:22.178Z,958.77
2022-11-30T08:24:22.160Z,958.80
2022-11-30T08:25:22.225Z,958.78
2022-11-30T08:26:21.241Z,958.81
2022-11-30T08:27:22.086Z,958.82
2022-11-30T08:28:21.209Z,958.81
2022-11-30T08:29:21.249Z,958.86
2022-11-30T08:30:23.469Z,958.84
2022-11-30T08:31:21.338Z,958.82
2022-11-30T08:32:21.128Z,958.85
2022-11-30T08:33:21.143Z,958.86
2022-11-30T08:34:21.117Z,958.84
2022-11-30T08:35:21.283Z,958.84
2022-11-30T08:36:21.384Z,958.85
2022-11-30T08:37:21.218Z,958.88
2022-11-30T08:38:21.064Z,958.90
2022-11-30T08:39:21.149Z,958.90
2022-11-30T08:40:21.047Z,958.98
2022-11-30T08:41:22.537Z,958.93
2022-11-30T08:42:20.999Z,958.88
2022-11-30T08:43:21.125Z,958.89
2022-11-30T08:44:20.982Z,958.92
2022-11-30T08:45:21.333Z,958.91
2022-11-30T08:46:49.771Z,958.90
2022-11-30T08:47:22.572Z,958.91
2022-11-30T08:48:20.939Z,958.96
2022-11-30T08:49:23.002Z,958.91
2022-11-30T08:50:20.881Z,958.92
2022-11-30T08:51:20.904Z,958.90
2022-11-30T08:52:20.897Z,958.93
2022-11-30T08:53:21.008Z,958.95
2022-11-30T08:54:20.857Z,959.03
2022-11-30T08:55:20.915Z,958.97
2022-11-30T08:56:20.791Z,959.02
2022-11-30T08:57:20.823Z,959.10
2022-11-30T08:58:20.776Z,959.04
2022-11-30T08:59:20.877Z,959.06
2022-11-30T09:00:20.748Z,959.08
2022-11-30T09:01:20.807Z,959.08
2022-11-30T09:02:20.832Z,959.04
2022-11-30T09:03:20.740Z,959.07
2022-11-30T09:04:20.690Z,959.04
2022-11-30T09:05:20.893Z,959.05
2022-11-30T09:06:20.750Z,959.15
2022-11-30T09:07:20.950Z,959.16
2022-11-30T09:08:20.640Z,959.16
2022-11-30T09:09:20.689Z,959.17
2022-11-30T09:10:20.591Z,959.15
2022-11-30T09:11:20.713Z,959.18
2022-11-30T09:12:20.581Z,959.19
2022-11-30T09:13:20.631Z,959.19
2022-11-30T09:14:20.567Z,959.23
2022-11-30T09:15:20.582Z,959.20
2022-11-30T09:16:20.570Z,959.23
2022-11-30T09:17:20.697Z,959.25
2022-11-30T09:18:20.495Z,959.24
2022-11-30T09:19:20.605Z,959.25
2022-11-30T09:20:20.579Z,959.29
2022-11-30T09:21:20.724Z,959.25
2022-11-30T09:22:20.443Z,959.23
2022-11-30T09:23:20.549Z,959.24
2022-11-30T09:24:20.414Z,959.26
2022-11-30T09:25:20.452Z,959.25
2022-11-30T09:26:20.397Z,959.25
2022-11-30T09:27:20.544Z,959.23
2022-11-30T09:28:20.351Z,959.27
2022-11-30T09:29:20.546Z,959.28
2022-11-30T09:30:20.342Z,959.27
2022-11-30T09:31:20.513Z,959.23
2022-11-30T09:32:20.349Z,959.25
2022-11-30T09:33:20.397Z,959.25
2022-11-30T09:34:20.296Z,959.28
2022-11-30T09:35:20.351Z,959.23
2022-11-30T09:36:21.199Z,959.26
2022-11-30T09:37:20.376Z,959.26
2022-11-30T09:38:20.213Z,959.24
2022-11-30T09:39:20.237Z,959.29
2022-11-30T09:40:20.227Z,959.24
2022-11-30T09:41:20.653Z,959.25
2022-11-30T09:42:20.156Z,959.26
2022-11-30T09:43:20.745Z,959.21
2022-11-30T09:44:20.139Z,959.26
2022-11-30T09:45:20.156Z,959.25
2022-11-30T09:46:20.548Z,959.26
2022-11-30T09:47:20.357Z,959.22
2022-11-30T09:48:20.074Z,959.23
2022-11-30T09:49:20.110Z,959.27
2022-11-30T09:50:20.159Z,959.26
2022-11-30T09:51:20.083Z,959.23
2022-11-30T09:52:20.163Z,959.21
2022-11-30T09:53:24.583Z,959.23
2022-11-30T09:54:21.417Z,959.22
2022-11-30T09:55:20.073Z,959.17
2022-11-30T09:56:20.090Z,959.17
2022-11-30T09:57:20.010Z,959.19
2022-11-30T09:58:20.057Z,959.22
2022-11-30T09:59:20.084Z,959.20
2022-11-30T10:00:19.982Z,959.17
2022-11-30T10:01:20.198Z,959.18
2022-11-30T10:02:19.992Z,959.18
2022-11-30T10:03:19.992Z,959.18
2022-11-30T10:04:19.967Z,959.18
2022-11-30T10:05:19.830Z,959.17
2022-11-30T10:06:20.052Z,959.22
2022-11-30T10:07:20.845Z,959.17
2022-11-30T10:08:19.833Z,959.19
2022-11-30T10:09:19.790Z,959.20
2022-11-30T10:10:35.497Z,959.22
2022-11-30T10:11:20.845Z,959.17
2022-11-30T10:12:19.776Z,959.16
2022-11-30T10:13:19.730Z,959.18
2022-11-30T10:14:19.804Z,959.17
2022-11-30T10:15:21.162Z,959.19
2022-11-30T10:16:20.141Z,959.21
2022-11-30T10:17:19.725Z,959.17
2022-11-30T10:18:19.707Z,959.14
2022-11-30T10:19:19.645Z,959.17
2022-11-30T10:20:19.708Z,959.17
2022-11-30T10:21:19.711Z,959.13
2022-11-30T10:22:20.423Z,959.15
2022-11-30T10:23:19.711Z,959.19
2022-11-30T10:24:20.417Z,959.16
2022-11-30T10:25:19.667Z,959.13
2022-11-30T10:26:19.676Z,959.16
2022-11-30T10:27:19.608Z,959.17
2022-11-30T10:28:45.582Z,959.16
2022-11-30T10:29:20.596Z,959.18
2022-11-30T10:30:19.541Z,959.18
2022-11-30T10:31:19.533Z,959.18
2022-11-30T10:32:19.569Z,959.12
2022-11-30T10:33:19.488Z,959.12
2022-11-30T10:34:19.599Z,959.10
2022-11-30T10:35:21.102Z,959.09
2022-11-30T10:36:19.430Z,959.09
2022-11-30T10:37:19.418Z,959.14
2022-11-30T10:38:19.404Z,959.11
2022-11-30T10:39:19.496Z,959.09
2022-11-30T10:40:19.648Z,959.07
2022-11-30T10:41:19.392Z,959.09
2022-11-30T10:42:19.370Z,959.09
2022-11-30T10:43:19.376Z,959.03
2022-11-30T10:44:19.344Z,959.09
2022-11-30T10:45:19.290Z,959.09
2022-11-30T10:46:19.474Z,959.09
2022-11-30T10:47:19.361Z,959.07
2022-11-30T10:48:20.216Z,959.08
2022-11-30T10:49:19.317Z,959.10
2022-11-30T10:50:19.243Z,959.02
2022-11-30T10:51:19.256Z,959.06
2022-11-30T10:52:19.275Z,959.03
2022-11-30T10:53:19.231Z,958.99
2022-11-30T10:54:20.005Z,959.02
2022-11-30T10:55:19.181Z,959.03
2022-11-30T10:56:19.161Z,959.00
2022-11-30T10:57:19.174Z,959.02
2022-11-30T10:58:19.248Z,958.95
2022-11-30T10:59:20.104Z,958.94
2022-11-30T11:00:19.120Z,958.91
2022-11-30T11:01:19.163Z,958.89
2022-11-30T11:02:19.092Z,958.87
2022-11-30T11:03:19.063Z,958.94
2022-11-30T11:04:19.351Z,958.82
2022-11-30T11:05:19.083Z,958.88
2022-11-30T11:06:19.036Z,958.89
2022-11-30T11:07:19.257Z,958.81
2022-11-30T11:08:19.039Z,958.82
2022-11-30T11:09:18.978Z,958.86
2022-11-30T11:10:19.310Z,958.81
2022-11-30T11:11:19.034Z,958.84
2022-11-30T11:12:18.927Z,958.86
2022-11-30T11:13:18.956Z,958.86
2022-11-30T11:14:18.925Z,958.85
2022-11-30T11:15:18.895Z,958.86
2022-11-30T11:16:19.025Z,958.82
2022-11-30T11:17:19.080Z,958.84
2022-11-30T11:18:18.922Z,958.86
2022-11-30T11:19:19.179Z,958.77
2022-11-30T11:20:18.836Z,958.80
2022-11-30T11:21:19.134Z,958.85
2022-11-30T11:22:18.887Z,958.83
2022-11-30T11:23:19.197Z,958.83
2022-11-30T11:24:18.921Z,958.81
2022-11-30T11:25:18.913Z,958.85
2022-11-30T11:26:18.745Z,958.81
2022-11-30T11:27:18.711Z,958.83
2022-11-30T11:28:18.849Z,958.84
2022-11-30T11:29:19.045Z,958.83
2022-11-30T11:30:18.693Z,958.79
2022-11-30T11:31:18.965Z,958.88
2022-11-30T11:32:18.667Z,958.93
2022-11-30T11:33:18.613Z,958.94
2022-11-30T11:34:18.777Z,958.91
2022-11-30T11:35:18.682Z,958.95
2022-11-30T11:36:18.663Z,958.87
2022-11-30T11:37:18.564Z,958.90
2022-11-30T11:38:18.570Z,958.91
2022-11-30T11:39:18.559Z,958.93
2022-11-30T11:40:18.624Z,958.96
2022-11-30T11:41:18.863Z,958.95
2022-11-30T11:42:22.040Z,959.00
2022-11-30T11:43:19.419Z,958.95
2022-11-30T11:44:19.439Z,958.99
2022-11-30T11:45:19.425Z,958.96
2022-11-30T11:46:19.664Z,958.98
2022-11-30T11:47:18.731Z,958.89
2022-11-30T11:48:19.391Z,958.86
2022-11-30T11:49:18.446Z,958.91
2022-11-30T11:50:27.175Z,958.87
2022-11-30T11:51:20.537Z,958.87
2022-11-30T11:52:18.404Z,958.96
2022-11-30T11:53:18.430Z,958.91
2022-11-30T11:54:18.384Z,958.89
2022-11-30T11:55:18.541Z,958.93
2022-11-30T11:56:18.335Z,958.89
2022-11-30T11:57:19.442Z,958.87
2022-11-30T11:58:19.263Z,958.91
2022-11-30T11:59:18.427Z,958.87
2022-11-30T12:00:18.311Z,958.90
2022-11-30T12:01:39.299Z,958.74
2022-11-30T12:02:19.282Z,958.83
2022-11-30T12:03:18.284Z,958.76
2022-11-30T12:04:19.216Z,958.81
2022-11-30T12:05:18.208Z,958.87
2022-11-30T12:06:18.188Z,958.85
2022-11-30T12:07:18.483Z,958.85
2022-11-30T12:08:18.981Z,958.86
2022-11-30T12:09:18.515Z,958.81
2022-11-30T12:10:50.050Z,958.81
2022-11-30T12:11:19.361Z,958.80
2022-11-30T12:12:18.118Z,958.79
2022-11-30T12:13:18.309Z,958.82
2022-11-30T12:14:18.137Z,958.84
2022-11-30T12:15:18.328Z,958.84
2022-11-30T12:16:19.004Z,958.78
2022-11-30T12:17:18.346Z,958.86
2022-11-30T12:18:23.835Z,958.86
2022-11-30T12:19:19.078Z,958.86
2022-11-30T12:20:18.193Z,958.81
2022-11-30T12:21:18.991Z,958.84
2022-11-30T12:22:18.790Z,958.82
2022-11-30T12:23:18.398Z,958.85
2022-11-30T12:24:18.202Z,958.81
2022-11-30T12:25:18.072Z,958.85
2022-11-30T12:26:18.181Z,958.86
2022-11-30T12:27:18.220Z,958.88
2022-11-30T12:28:18.169Z,958.84